x

Half Moon Bay - 24nm Ssw Of San Francisco, Ca (46012) Wave Buoy

11:50pm - Mon 15th Sep 2014 All times are PDT. -7 hours from GMT.

  • Sig Wave height 2.6ft
  • Swell Direction
  • Peak Period 21s
  • Average Period 10s
  • Wind
    2mph
  • Sea Temp 64°f
  • Air Temp 64°f
  • Sea Pressure 1013.8mb
  • Half Moon Bay - 24nm Ssw Of San Francisco, Ca
  • Half Moon Bay - 24nm Ssw Of San Francisco, Ca

More Historic Weather Station data

Upgrade to MSW Pro to gain access to the past 30 days of data for over 8000 Wavebouys and Weather Stations around the globe.

Join Pro

Comparision Forecast

View Surf forecast
   
Mon 09/15 11:50pm 2.5ft 21s 10s 2
mph
1013.8mb 64f 64f
10:50pm 3ft 19s 9s  -  2 mph 1013.7mb 64f 64f
9:50pm 2.5ft 21s 10s  -  mph 1013.6mb 64f 64f
8:50pm 3ft 21s 10s 4
mph
1013.1mb 65f 64f
7:50pm 2.5ft 14s 9s 4
mph
1012.5mb 65f 64f
6:50pm 2.5ft 21s 9s 4
mph
1012.5mb 65f 65f
5:50pm 2.5ft 24s 8s 4 7 mph 1012.6mb 65f 65f
4:50pm 2.5ft 21s 9s 4
mph
1012.7mb 66f 65f
3:50pm 2.5ft 21s 9s 2 4 mph 1012.9mb 65f 64f
2:50pm 2.5ft 14s 8s  -  2 mph 1013.1mb 65f 64f
1:50pm 2.5ft 14s 8s 4 7 mph 1013.4mb 65f 63f
12:50pm 2.5ft 21s 8s 4 7 mph 1013.6mb 65f 63f
11:50am 3ft 21s 8s 4
mph
1013.6mb 64f 63f
10:50am 2.5ft 14s 7s 4
mph
1013.4mb 64f 63f
9:50am 2.5ft 21s 7s 4
mph
1013.3mb 64f 63f
8:50am 2.5ft 21s 8s 2
mph
1013.1mb 64f 63f
7:50am 2.5ft 10s 7s 2
mph
1012.8mb 64f 63f
6:50am 2.5ft 10s 7s 2
mph
1012mb 63f 62f
5:50am 2.5ft 21s 7s 7 9 mph 1011.5mb 64f 63f
4:50am 2.5ft 10s 6s 2
mph
1011.2mb 63f 62f
3:50am 2.5ft 10s 7s  -  2 mph 1011.1mb 63f 62f
2:50am 2.5ft 10s 7s 2
mph
1011.1mb 63f 62f
1:50am 2.5ft 14s 8s 7
mph
1011mb 62f 63f
12:50am 2.5ft 10s 7s 2
mph
1011mb 62f 62f
Sun 09/14 11:50pm 2.5ft 10s 6s 2 4 mph 1010.9mb 62f 61f
10:50pm 2.5ft 13s 6s 4
mph
1010.8mb 62f 61f
9:50pm 2.5ft 10s 7s 7
mph
1010.6mb 62f 61f
8:50pm 2.5ft 11s 6s 7 9 mph 1010.4mb 63f 62f
7:50pm 2.5ft 10s 6s 9 11 mph 1009.9mb 63f 62f
6:50pm 2.5ft 11s 6s 9 13 mph 1009.9mb 64f 62f
5:50pm 2.5ft 11s 6s 11 13 mph 1010.3mb 64f 62f
4:50pm 2.5ft 10s 7s 13
mph
1009.8mb 64f 62f
3:50pm 2.5ft 11s 7s 11
mph
1010.4mb 64f 62f
2:50pm 2.5ft 11s 7s 9 11 mph 1011mb 64f 62f
1:50pm 2.5ft 11s 7s 9 11 mph 1011.3mb 65f 62f
12:50pm 2.5ft 11s 7s 7 9 mph 1011.8mb 65f 62f
11:50am 2.5ft 10s 7s 7 9 mph 1011.8mb 64f 61f
10:50am 2.5ft 13s 7s 4
mph
1012.1mb 62f 60f
9:50am 2.5ft 11s 6s 2 7 mph 1011.8mb 62f 60f
8:50am 2.5ft 11s 6s 9 11 mph 1010.9mb 62f 60f
7:50am 2.5ft 11s 7s 9 11 mph 1010.7mb 62f 60f
6:50am 2.5ft 14s 7s 7 9 mph 1010.4mb 62f 60f
5:50am 2.5ft 10s 7s 4 7 mph 1010.4mb 62f 60f
4:50am 2.5ft 14s 7s 4
mph
1010.2mb 62f 60f
3:50am 2.5ft 11s 7s 4 7 mph 1010.4mb 62f 60f
2:50am 2.5ft 14s 7s 4
mph
1010.5mb 62f 60f
1:50am 2.5ft 14s 7s 4 9 mph 1010.4mb 62f 60f
12:50am 2.5ft 11s 6s 2 7 mph 1010.2mb 62f 60f
Sat 09/13 11:50pm 3ft 11s 6s 4 7 mph 1010.1mb 62f 60f
10:50pm 3ft 10s 6s 2 4 mph 1010.2mb 61f 60f
9:50pm 3ft 13s 6s  -  2 mph 1010.2mb 61f 60f
8:50pm 3ft 8s 7s 4 9 mph 1009.8mb 61f 60f
7:50pm 2.5ft 14s 6s 9 11 mph 1009.5mb 61f 60f
6:50pm 2.5ft 14s 6s 9 11 mph 1009.4mb 62f 61f
5:50pm 3ft 14s 7s 11 13 mph 1009.8mb 62f 61f
4:50pm 3ft 11s 7s 11 13 mph 1009.9mb 62f 61f
3:50pm 3ft 11s 7s 11 13 mph 1010mb 62f 61f
2:50pm 3ft 11s 8s 9 13 mph 1010.4mb 62f 61f
1:50pm 3ft 14s 8s 7 9 mph 1010.6mb 63f 60f
12:50pm 3ft 11s 7s 7 9 mph 1010.9mb 62f 60f
11:50am 3.5ft 11s 7s 2 4 mph 1011.2mb 61f 60f
10:50am 3.5ft 8s 7s  -  4 mph 1011.3mb 62f 61f
9:50am 3.5ft 11s 7s 2 4 mph 1011.4mb 61f 60f
8:50am 3.5ft 11s 7s 4 7 mph 1011.4mb 61f 60f
7:50am 3.5ft 14s 7s 4 9 mph 1011.2mb 61f 60f
6:50am 3ft 14s 7s 4 7 mph 1011mb 62f 59f
5:50am 3.5ft 14s 7s 2 7 mph 1010.3mb 62f 60f
4:50am 3.5ft 11s 7s 7 9 mph 1010.4mb 62f 60f
3:50am 3.5ft 12s 7s 4 7 mph 1010.4mb 62f 60f
2:50am 4ft 14s 8s 2 7 mph 1010.6mb 62f 60f
1:50am 3.5ft 11s 7s 4 7 mph 1010.9mb 62f 60f
12:50am 3.5ft 15s 7s 7 9 mph 1010.9mb 62f 60f
Fri 09/12 11:50pm 3.5ft 14s 7s 4 7 mph 1010.9mb 61f 60f
10:50pm 3.5ft 15s 7s 7 9 mph 1010.8mb 61f 61f
9:50pm 3.5ft 14s 7s 7 9 mph 1010.8mb 61f 61f
8:50pm 3.5ft 8s 7s 9 11 mph 1010.5mb 61f 61f
7:50pm 3.5ft 8s 7s 11 16 mph 1010.1mb 61f 61f
6:50pm 3.5ft 15s 7s 11 13 mph 1010.2mb 62f 61f
5:50pm 3.5ft 11s 7s 9 11 mph 1010.5mb 62f 61f
4:50pm 3.5ft 11s 8s 9 13 mph 1010.7mb 62f 61f
3:50pm 4ft 12s 8s 9 11 mph 1011.1mb 62f 60f
2:50pm 4ft 15s 8s 7 9 mph 1011.6mb 61f 60f
1:50pm 3.5ft 15s 8s 4 7 mph 1012.1mb 62f 60f
12:50pm 4.5ft 12s 8s 4 7 mph 1012.5mb 63f 60f
11:50am 4ft 8s 8s 4 7 mph 1012.9mb 62f 59f
10:50am 4.5ft 12s 8s 4 7 mph 1013.1mb 62f 59f
9:50am 4.5ft 12s 9s 4
mph
1012.8mb 62f 59f
8:50am 4.5ft 12s 8s 7 9 mph 1012.7mb 62f 58f